^^
Station Historical Data
Daily Summary for February 27, 2017 Units:  English    Metric   Both
« Previous Day
Next Day »
Daily Weekly Monthly Yearly Custom
  High: Low: Average:
Temperature: 50.3 °F 25.0 °F 37.9 °F
Dew Point: 36.1 °F 18.9 °F 27.8 °F
Humidity: 85 % 46 % 68 %
Wind Speed: 11.2 mph 0.0 mph 1.9 mph
Wind Gust: 16.1 mph - -
Wind:- - WSW
Pressure: 30.45 in 30.29 in -
Precipitation: 0.00 in    
Historical Graphs
 
 
Tabular Data for February 27, 2017
Time Temperature Dew Point Pressure Wind Wind Speed Wind Gust Humidity Rainfall Rate (Hourly) solar Conditions
00:02 28.7 °F 19.5 °F 30.29 in Calm     68 % 0.00 in 0.0 W/m2 CLR
00:07 28.6 °F 19.7 °F 30.30 in Calm     69 % 0.00 in 0.0 W/m2 CLR
00:12 28.5 °F 19.6 °F 30.30 in Calm     69 % 0.00 in 0.0 W/m2 CLR
00:18 28.5 °F 19.6 °F 30.30 in Calm     69 % 0.00 in 0.0 W/m2 CLR
00:23 28.6 °F 19.7 °F 30.30 in Calm     69 % 0.00 in 0.0 W/m2 CLR
00:28 28.3 °F 19.4 °F 30.30 in Calm     69 % 0.00 in 0.0 W/m2 CLR
00:33 28.3 °F 19.8 °F 30.30 in Calm     70 % 0.00 in 0.0 W/m2 CLR
00:38 27.8 °F 19.3 °F 30.30 in Calm     70 % 0.00 in 0.0 W/m2 CLR
00:43 27.7 °F 19.2 °F 30.30 in Calm     70 % 0.00 in 0.0 W/m2 CLR
00:48 27.6 °F 19.4 °F 30.30 in Calm     71 % 0.00 in 0.0 W/m2 CLR
00:53 27.8 °F 19.6 °F 30.30 in Calm     71 % 0.00 in 0.0 W/m2 CLR
00:58 28.0 °F 19.8 °F 30.30 in Calm     71 % 0.00 in 0.0 W/m2 CLR
01:03 27.7 °F 19.5 °F 30.30 in Calm     71 % 0.00 in 0.0 W/m2 CLR
01:08 27.3 °F 19.5 °F 30.30 in Calm     72 % 0.00 in 0.0 W/m2 CLR
01:13 27.4 °F 19.6 °F 30.30 in Calm     72 % 0.00 in 0.0 W/m2 CLR
01:18 27.5 °F 19.7 °F 30.30 in Calm     72 % 0.00 in 0.0 W/m2 CLR
01:23 27.3 °F 19.5 °F 30.30 in Calm     72 % 0.00 in 0.0 W/m2 CLR
01:28 27.5 °F 19.7 °F 30.31 in Calm     72 % 0.00 in 0.0 W/m2 CLR
01:33 27.6 °F 19.8 °F 30.31 in Calm     72 % 0.00 in 0.0 W/m2 CLR
01:38 27.7 °F 19.8 °F 30.31 in Calm     72 % 0.00 in 0.0 W/m2 CLR
01:43 27.9 °F 20.0 °F 30.31 in Calm     72 % 0.00 in 0.0 W/m2 CLR
01:48 27.8 °F 19.6 °F 30.31 in Calm     71 % 0.00 in 0.0 W/m2 CLR
01:53 27.4 °F 19.2 °F 30.31 in Calm     71 % 0.00 in 0.0 W/m2 CLR
01:58 27.4 °F 19.6 °F 30.31 in Calm     72 % 0.00 in 0.0 W/m2 CLR
02:03 27.1 °F 19.3 °F 30.31 in Calm     72 % 0.00 in 0.0 W/m2 CLR
02:08 26.5 °F 19.0 °F 30.31 in Calm     73 % 0.00 in 0.0 W/m2 CLR
02:13 26.4 °F 18.9 °F 30.31 in Calm     73 % 0.00 in 0.0 W/m2 CLR
02:18 26.8 °F 19.6 °F 30.31 in Calm     74 % 0.00 in 0.0 W/m2 CLR
02:23 27.1 °F 19.9 °F 30.31 in Calm     74 % 0.00 in 0.0 W/m2 CLR
02:28 26.8 °F 19.3 °F 30.32 in Calm     73 % 0.00 in 0.0 W/m2 CLR
02:33 26.7 °F 19.5 °F 30.32 in Calm     74 % 0.00 in 0.0 W/m2 CLR
02:38 26.7 °F 19.5 °F 30.32 in Calm     74 % 0.00 in 0.0 W/m2 CLR
02:43 26.5 °F 19.3 °F 30.32 in Calm     74 % 0.00 in 0.0 W/m2 CLR
02:48 26.4 °F 19.2 °F 30.32 in Calm     74 % 0.00 in 0.0 W/m2 CLR
02:49 26.4 °F 19.2 °F 30.32 in Calm     74 % 0.00 in 0.0 W/m2 CLR
02:54 26.5 °F 19.3 °F 30.33 in Calm     74 % 0.00 in 0.0 W/m2 CLR
02:59 26.1 °F 18.9 °F 30.33 in Calm     74 % 0.00 in 0.0 W/m2 CLR
03:04 25.9 °F 19.1 °F 30.33 in Calm     75 % 0.00 in 0.0 W/m2 CLR
03:09 26.0 °F 19.2 °F 30.33 in Calm     75 % 0.00 in 0.0 W/m2 CLR
03:14 26.1 °F 19.6 °F 30.34 in Calm     76 % 0.00 in 0.0 W/m2 CLR
03:19 26.1 °F 19.6 °F 30.34 in Calm     76 % 0.00 in 0.0 W/m2 CLR
03:24 26.1 °F 19.6 °F 30.34 in Calm     76 % 0.00 in 0.0 W/m2 CLR
03:29 26.0 °F 19.5 °F 30.34 in Calm     76 % 0.00 in 0.0 W/m2 CLR
03:34 25.9 °F 19.4 °F 30.34 in Calm     76 % 0.00 in 0.0 W/m2 CLR
03:39 26.0 °F 19.5 °F 30.35 in Calm     76 % 0.00 in 0.0 W/m2 CLR
03:44 25.9 °F 19.4 °F 30.35 in Calm     76 % 0.00 in 0.0 W/m2 CLR
03:49 25.7 °F 19.5 °F 30.35 in Calm     77 % 0.00 in 0.0 W/m2 CLR
03:54 25.6 °F 19.4 °F 30.35 in Calm     77 % 0.00 in 0.0 W/m2 CLR
03:59 25.7 °F 19.5 °F 30.35 in Calm     77 % 0.00 in 0.0 W/m2 CLR
04:04 25.6 °F 19.4 °F 30.35 in Calm     77 % 0.00 in 0.0 W/m2 CLR
04:09 25.2 °F 19.3 °F 30.35 in Calm     78 % 0.00 in 0.0 W/m2 CLR
04:14 25.1 °F 19.2 °F 30.36 in Calm     78 % 0.00 in 0.0 W/m2 CLR
04:19 25.1 °F 19.5 °F 30.36 in Calm     79 % 0.00 in 0.0 W/m2 CLR
04:24 25.5 °F 19.9 °F 30.36 in Calm     79 % 0.00 in 0.0 W/m2 CLR
04:29 25.3 °F 19.7 °F 30.36 in Calm     79 % 0.00 in 0.0 W/m2 CLR
04:34 25.2 °F 19.6 °F 30.37 in Calm     79 % 0.00 in 0.0 W/m2 CLR
04:39 25.5 °F 19.9 °F 30.37 in Calm     79 % 0.00 in 0.0 W/m2 CLR
04:44 25.6 °F 20.0 °F 30.37 in Calm     79 % 0.00 in 0.0 W/m2 CLR
04:49 25.6 °F 19.7 °F 30.37 in Calm     78 % 0.00 in 0.0 W/m2 CLR
04:54 25.9 °F 20.0 °F 30.37 in Calm     78 % 0.00 in 0.0 W/m2 CLR
04:59 26.0 °F 20.1 °F 30.38 in Calm     78 % 0.00 in 0.0 W/m2 CLR
05:04 26.1 °F 19.9 °F 30.38 in Calm     77 % 0.00 in 0.0 W/m2 CLR
05:09 26.3 °F 20.1 °F 30.38 in Calm     77 % 0.00 in 0.0 W/m2 CLR
05:14 26.3 °F 20.1 °F 30.38 in Calm     77 % 0.00 in 0.0 W/m2 CLR
05:19 26.0 °F 19.5 °F 30.38 in Calm     76 % 0.00 in 0.0 W/m2 CLR
05:24 25.6 °F 19.4 °F 30.39 in Calm     77 % 0.00 in 0.0 W/m2 CLR
05:29 25.4 °F 19.2 °F 30.39 in Calm     77 % 0.00 in 0.0 W/m2 CLR
05:34 25.3 °F 19.4 °F 30.39 in Calm     78 % 0.00 in 0.0 W/m2 CLR
05:39 25.7 °F 20.1 °F 30.38 in Calm     79 % 0.00 in 0.0 W/m2 CLR
05:44 25.9 °F 20.0 °F 30.38 in Calm     78 % 0.00 in 0.0 W/m2 CLR
05:49 25.9 °F 20.0 °F 30.39 in Calm     78 % 0.00 in 0.0 W/m2 CLR
05:54 25.9 °F 20.0 °F 30.38 in Calm     78 % 0.00 in 0.0 W/m2 CLR
05:59 25.6 °F 19.7 °F 30.38 in Calm     78 % 0.00 in 0.0 W/m2 CLR
06:04 25.4 °F 19.5 °F 30.38 in Calm     78 % 0.00 in 0.0 W/m2 CLR
06:09 25.3 °F 19.7 °F 30.39 in Calm     79 % 0.00 in 0.0 W/m2 CLR
06:14 25.3 °F 19.7 °F 30.39 in Calm     79 % 0.00 in 0.0 W/m2 CLR
06:19 25.2 °F 19.6 °F 30.38 in Calm     79 % 0.00 in 0.0 W/m2 CLR
06:24 25.2 °F 19.6 °F 30.39 in Calm     79 % 0.00 in 0.0 W/m2 CLR
06:29 25.1 °F 19.5 °F 30.39 in Calm     79 % 0.00 in 0.0 W/m2 CLR
06:34 25.0 °F 19.4 °F 30.40 in Calm     79 % 0.00 in 0.0 W/m2 CLR
06:39 25.0 °F 19.4 °F 30.40 in Calm     79 % 0.00 in 5.0 W/m2 CLR
06:44 25.0 °F 19.7 °F 30.40 in Calm     80 % 0.00 in 9.0 W/m2 CLR
06:49 25.0 °F 19.7 °F 30.40 in Calm     80 % 0.00 in 16.0 W/m2 CLR
06:54 25.1 °F 19.8 °F 30.40 in Calm     80 % 0.00 in 21.0 W/m2 CLR
06:59 25.2 °F 19.9 °F 30.41 in Calm     80 % 0.00 in 23.0 W/m2 CLR
07:04 25.4 °F 20.1 °F 30.41 in Calm     80 % 0.00 in 28.0 W/m2 CLR
07:09 25.6 °F 20.3 °F 30.41 in Calm     80 % 0.00 in 35.0 W/m2 CLR
07:14 25.8 °F 20.2 °F 30.41 in Calm     79 % 0.00 in 40.0 W/m2 CLR
07:20 26.1 °F 20.5 °F 30.41 in Calm     79 % 0.00 in 47.0 W/m2 CLR
07:25 26.5 °F 20.9 °F 30.42 in Calm     79 % 0.00 in 54.0 W/m2 CLR
07:30 26.8 °F 21.2 °F 30.42 in Calm     79 % 0.00 in 74.0 W/m2 CLR
07:35 27.1 °F 21.5 °F 30.42 in Calm     79 % 0.00 in 95.0 W/m2 CLR
07:40 27.6 °F 21.6 °F 30.42 in Calm     78 % 0.00 in 105.0 W/m2 CLR
07:45 28.2 °F 22.2 °F 30.42 in Calm     78 % 0.00 in 95.0 W/m2 CLR
07:50 29.2 °F 22.9 °F 30.42 in Calm   1.2 mph 77 % 0.00 in 114.0 W/m2 CLR
07:55 29.4 °F 22.8 °F 30.42 in Calm     76 % 0.00 in 123.0 W/m2 CLR
08:00 29.6 °F 23.0 °F 30.42 in Calm     76 % 0.00 in 128.0 W/m2 CLR
08:05 30.2 °F 23.5 °F 30.43 in Calm     76 % 0.00 in 148.0 W/m2 CLR
08:10 30.8 °F 23.5 °F 30.43 in Calm     74 % 0.00 in 174.0 W/m2 CLR
08:15 31.7 °F 23.7 °F 30.43 in Calm     72 % 0.00 in 183.0 W/m2 CLR
08:20 32.5 °F 24.5 °F 30.43 in Calm   1.2 mph 72 % 0.00 in 155.0 W/m2 CLR
08:25 33.5 °F 24.4 °F 30.43 in West 1.6 mph 3.5 mph 69 % 0.00 in 186.0 W/m2 CLR
08:30 34.4 °F 25.3 °F 30.43 in West 0.5 mph 3.5 mph 69 % 0.00 in 149.0 W/m2 FEW
08:35 34.8 °F 25.0 °F 30.43 in West 0.7 mph 3.5 mph 67 % 0.00 in 179.0 W/m2 FEW
08:37 34.9 °F 25.0 °F 30.43 in West 1.8 mph 3.5 mph 67 % 0.00 in 156.0 W/m2 FEW
08:42 35.4 °F 25.5 °F 30.43 in WSW 1.7 mph 3.5 mph 67 % 0.00 in 221.0 W/m2 FEW
08:47 35.9 °F 25.6 °F 30.43 in West 2.3 mph 3.5 mph 66 % 0.00 in 250.0 W/m2 CLR
08:52 36.2 °F 24.8 °F 30.43 in West 4.2 mph 5.8 mph 63 % 0.00 in 209.0 W/m2 FEW
08:57 36.4 °F 24.2 °F 30.43 in WSW 5.5 mph 8.1 mph 61 % 0.00 in 279.0 W/m2 CLR
09:02 36.8 °F 24.6 °F 30.43 in WSW 1.3 mph 3.5 mph 61 % 0.00 in 334.0 W/m2 CLR
09:07 37.5 °F 25.3 °F 30.43 in WSW 5.0 mph 8.1 mph 61 % 0.00 in 327.0 W/m2 CLR
09:12 38.1 °F 25.4 °F 30.44 in WNW 4.0 mph 6.9 mph 60 % 0.00 in 364.0 W/m2 CLR
09:17 38.4 °F 25.3 °F 30.44 in West 6.4 mph 6.9 mph 59 % 0.00 in 336.0 W/m2 CLR
09:22 38.9 °F 26.2 °F 30.44 in West 4.4 mph 8.0 mph 60 % 0.00 in 322.0 W/m2 CLR
09:27 38.9 °F 25.8 °F 30.44 in WSW 4.6 mph 6.0 mph 59 % 0.00 in 262.0 W/m2 FEW
09:32 38.9 °F 25.8 °F 30.45 in WNW 3.4 mph 10.4 mph 59 % 0.00 in 262.0 W/m2 FEW
09:37 39.2 °F 26.9 °F 30.45 in West 3.0 mph 5.8 mph 61 % 0.00 in 260.0 W/m2 FEW
09:43 39.5 °F 27.2 °F 30.45 in West 6.5 mph 8.1 mph 61 % 0.00 in 278.0 W/m2 SCT
09:54 39.9 °F 27.1 °F 30.45 in West 7.8 mph 8.1 mph 60 % 0.00 in 415.0 W/m2 CLR
09:59 40.3 °F 27.5 °F 30.45 in SW 6.1 mph 9.2 mph 60 % 0.00 in 364.0 W/m2 CLR
10:04 40.3 °F 27.5 °F 30.45 in WSW 3.6 mph 7.0 mph 60 % 0.00 in 366.0 W/m2 FEW
10:09 40.5 °F 27.7 °F 30.44 in West 2.3 mph 3.5 mph 60 % 0.00 in 327.0 W/m2 FEW
10:14 40.4 °F 27.6 °F 30.44 in WSW 3.8 mph 5.0 mph 60 % 0.00 in 450.0 W/m2 CLR
10:19 41.0 °F 28.6 °F 30.44 in West 3.5 mph 7.0 mph 61 % 0.00 in 519.0 W/m2 CLR
10:24 41.6 °F 29.1 °F 30.44 in WSW 3.9 mph 5.8 mph 61 % 0.00 in 415.0 W/m2 FEW
10:29 42.0 °F 29.5 °F 30.44 in West 4.4 mph 6.9 mph 61 % 0.00 in 454.0 W/m2 CLR
10:34 42.1 °F 29.6 °F 30.44 in WNW 4.8 mph 6.9 mph 61 % 0.00 in 455.0 W/m2 FEW
10:39 42.5 °F 30.0 °F 30.44 in West 5.5 mph 6.0 mph 61 % 0.00 in 520.0 W/m2 CLR
10:44 42.8 °F 30.3 °F 30.44 in West 3.3 mph 6.9 mph 61 % 0.00 in 512.0 W/m2 CLR
10:49 43.4 °F 30.8 °F 30.44 in SW 3.4 mph 9.2 mph 61 % 0.00 in 459.0 W/m2 CLR
10:54 43.4 °F 30.4 °F 30.44 in WSW 5.0 mph 8.0 mph 60 % 0.00 in 478.0 W/m2 FEW
11:00 43.5 °F 30.5 °F 30.44 in WSW 5.7 mph 5.8 mph 60 % 0.00 in 455.0 W/m2 FEW
11:05 43.7 °F 30.7 °F 30.43 in WSW 6.5 mph 8.1 mph 60 % 0.00 in 376.0 W/m2 FEW
11:10 44.1 °F 31.1 °F 30.43 in WSW 4.7 mph 8.1 mph 60 % 0.00 in 469.0 W/m2 FEW
11:15 44.1 °F 31.1 °F 30.43 in West 4.5 mph 8.1 mph 60 % 0.00 in 478.0 W/m2 CLR
11:20 44.6 °F 31.6 °F 30.43 in South 5.2 mph 9.2 mph 60 % 0.00 in 512.0 W/m2 CLR
11:25 44.6 °F 31.6 °F 30.43 in SW 2.0 mph 3.5 mph 60 % 0.00 in 610.0 W/m2 CLR
11:30 45.4 °F 31.5 °F 30.43 in SW 5.4 mph 6.9 mph 58 % 0.00 in 622.0 W/m2 CLR
11:32 45.4 °F 31.5 °F 30.43 in SW 2.1 mph 3.5 mph 58 % 0.00 in 561.0 W/m2 CLR
11:37 45.8 °F 31.9 °F 30.43 in SW 4.2 mph 7.0 mph 58 % 0.00 in 575.0 W/m2 CLR
11:42 46.8 °F 32.4 °F 30.43 in West 3.2 mph 3.5 mph 57 % 0.00 in 469.0 W/m2 CLR
11:47 46.7 °F 31.8 °F 30.42 in SW 2.6 mph 3.5 mph 56 % 0.00 in 431.0 W/m2 FEW
11:52 46.9 °F 32.0 °F 30.42 in SW 4.2 mph 6.9 mph 56 % 0.00 in 455.0 W/m2 FEW
11:57 47.3 °F 32.4 °F 30.42 in WSW 3.6 mph 5.8 mph 56 % 0.00 in 403.0 W/m2 FEW
12:02 47.7 °F 32.3 °F 30.42 in WSW 6.9 mph 11.5 mph 55 % 0.00 in 452.0 W/m2 CLR
12:07 47.5 °F 31.7 °F 30.42 in WNW 3.7 mph 8.0 mph 54 % 0.00 in 401.0 W/m2 FEW
12:12 47.8 °F 31.9 °F 30.42 in West 5.1 mph 8.1 mph 54 % 0.00 in 459.0 W/m2 CLR
12:17 48.0 °F 31.7 °F 30.42 in WSW 7.0 mph 11.5 mph 53 % 0.00 in 353.0 W/m2 SCT
12:22 48.5 °F 30.7 °F 30.41 in SW 5.3 mph 6.9 mph 50 % 0.00 in 378.0 W/m2 SCT
12:27 48.5 °F 30.2 °F 30.40 in SSW 6.8 mph 11.5 mph 49 % 0.00 in 403.0 W/m2 FEW
12:32 48.7 °F 30.9 °F 30.41 in WSW 6.2 mph 8.1 mph 50 % 0.00 in 330.0 W/m2 SCT
12:37 49.1 °F 31.2 °F 30.41 in SSW 4.6 mph 5.0 mph 50 % 0.00 in 371.0 W/m2 SCT
12:42 48.8 °F 30.5 °F 30.40 in SW 6.6 mph 10.4 mph 49 % 0.00 in 366.0 W/m2 SCT
12:47 49.1 °F 31.2 °F 30.40 in SSW 5.7 mph 9.2 mph 50 % 0.00 in 327.0 W/m2 SCT
12:52 49.1 °F 30.2 °F 30.40 in SSW 10.0 mph 12.7 mph 48 % 0.00 in 299.0 W/m2 SCT
12:57 48.9 °F 30.1 °F 30.39 in SW 7.5 mph 10.4 mph 48 % 0.00 in 285.0 W/m2 BKN
13:02 49.0 °F 29.6 °F 30.39 in SW 9.6 mph 11.5 mph 47 % 0.00 in 288.0 W/m2 BKN
13:07 49.1 °F 30.7 °F 30.39 in SSW 7.5 mph 8.1 mph 49 % 0.00 in 290.0 W/m2 SCT
13:12 48.9 °F 30.1 °F 30.39 in SSW 8.2 mph 9.2 mph 48 % 0.00 in 278.0 W/m2 BKN
13:17 48.9 °F 30.6 °F 30.39 in SSW 5.6 mph 10.4 mph 49 % 0.00 in 250.0 W/m2 BKN
13:22 49.2 °F 30.3 °F 30.39 in SW 6.5 mph 10.4 mph 48 % 0.00 in 237.0 W/m2 BKN
13:27 49.4 °F 29.5 °F 30.38 in South 9.5 mph 11.5 mph 46 % 0.00 in 248.0 W/m2 BKN
13:32 49.3 °F 29.9 °F 30.38 in SSW 5.9 mph 10.4 mph 47 % 0.00 in 260.0 W/m2 BKN
13:37 49.3 °F 30.4 °F 30.38 in SW 5.1 mph 7.0 mph 48 % 0.00 in 260.0 W/m2 BKN
13:42 49.4 °F 30.5 °F 30.38 in WSW 4.3 mph 9.2 mph 48 % 0.00 in 255.0 W/m2 BKN
13:47 49.3 °F 31.9 °F 30.38 in WSW 2.6 mph 6.9 mph 51 % 0.00 in 257.0 W/m2 BKN
13:52 49.1 °F 31.7 °F 30.38 in WSW 6.0 mph 7.0 mph 51 % 0.00 in 258.0 W/m2 BKN
13:57 49.2 °F 32.3 °F 30.38 in West 1.0 mph 3.5 mph 52 % 0.00 in 234.0 W/m2 BKN
14:02 49.3 °F 31.9 °F 30.38 in West 1.6 mph 8.1 mph 51 % 0.00 in 218.0 W/m2 BKN
14:07 49.4 °F 31.5 °F 30.38 in WSW 4.3 mph 5.8 mph 50 % 0.00 in 199.0 W/m2 BKN
14:12 49.2 °F 31.3 °F 30.38 in WSW 0.2 mph 3.5 mph 50 % 0.00 in 181.0 W/m2 BKN
14:17 49.6 °F 31.7 °F 30.37 in West 0.1 mph 1.0 mph 50 % 0.00 in 181.0 W/m2 BKN
14:18 49.7 °F 31.8 °F 30.37 in West 0.9 mph 3.5 mph 50 % 0.00 in 181.0 W/m2 BKN
14:23 49.7 °F 30.8 °F 30.38 in SSW 3.7 mph 5.8 mph 48 % 0.00 in 179.0 W/m2 BKN
14:28 50.1 °F 30.1 °F 30.37 in South 3.0 mph 7.0 mph 46 % 0.00 in 167.0 W/m2 BKN
14:33 50.2 °F 30.2 °F 30.37 in West 5.0 mph 8.1 mph 46 % 0.00 in 162.0 W/m2 BKN
14:38 49.9 °F 30.5 °F 30.37 in WNW 3.5 mph 6.9 mph 47 % 0.00 in 160.0 W/m2 BKN
14:43 50.0 °F 30.5 °F 30.38 in WNW 3.6 mph 5.0 mph 47 % 0.00 in 174.0 W/m2 BKN
14:48 50.0 °F 30.5 °F 30.37 in West 3.8 mph 5.8 mph 47 % 0.00 in 186.0 W/m2 BKN
14:53 50.0 °F 30.5 °F 30.37 in WNW 2.4 mph 3.5 mph 47 % 0.00 in 188.0 W/m2 BKN
14:58 50.3 °F 31.3 °F 30.38 in West 4.8 mph 6.9 mph 48 % 0.00 in 186.0 W/m2 BKN
15:03 50.1 °F 30.6 °F 30.38 in West 4.2 mph 5.8 mph 47 % 0.00 in 193.0 W/m2 BKN
15:08 49.9 °F 30.5 °F 30.38 in WSW 0.7 mph 2.3 mph 47 % 0.00 in 192.0 W/m2 BKN
15:13 49.8 °F 30.9 °F 30.38 in West 5.7 mph 9.2 mph 48 % 0.00 in 179.0 W/m2 BKN
15:18 49.8 °F 30.9 °F 30.38 in West 3.9 mph 5.8 mph 48 % 0.00 in 179.0 W/m2 BKN
15:23 50.1 °F 31.2 °F 30.38 in SW 4.2 mph 8.1 mph 48 % 0.00 in 146.0 W/m2 BKN
15:28 49.9 °F 31.0 °F 30.38 in WSW 2.9 mph 5.8 mph 48 % 0.00 in 127.0 W/m2 BKN
15:33 50.1 °F 31.2 °F 30.39 in West 6.4 mph 8.1 mph 48 % 0.00 in 114.0 W/m2 BKN
15:38 50.2 °F 31.2 °F 30.39 in WSW 6.8 mph 10.4 mph 48 % 0.00 in 125.0 W/m2 BKN
15:43 50.0 °F 31.1 °F 30.39 in South 7.2 mph 11.5 mph 48 % 0.00 in 121.0 W/m2 BKN
15:48 49.8 °F 31.4 °F 30.39 in SW 5.4 mph 8.1 mph 49 % 0.00 in 104.0 W/m2 BKN
15:53 49.8 °F 31.4 °F 30.39 in SSW 4.1 mph 5.8 mph 49 % 0.00 in 93.0 W/m2 BKN
15:58 49.8 °F 31.4 °F 30.39 in SW 6.6 mph 10.4 mph 49 % 0.00 in 95.0 W/m2 BKN
16:03 49.6 °F 31.2 °F 30.39 in SW 11.2 mph 15.0 mph 49 % 0.00 in 97.0 W/m2 BKN
16:08 49.4 °F 31.5 °F 30.39 in SSW 6.1 mph 8.1 mph 50 % 0.00 in 121.0 W/m2 BKN
16:13 49.5 °F 31.6 °F 30.39 in SW 9.3 mph 16.1 mph 50 % 0.00 in 123.0 W/m2 SCT
16:18 49.3 °F 31.4 °F 30.40 in SW 9.2 mph 11.5 mph 50 % 0.00 in 118.0 W/m2 SCT
16:23 49.0 °F 31.6 °F 30.40 in SSW 10.0 mph 13.8 mph 51 % 0.00 in 98.0 W/m2 SCT
16:28 48.8 °F 31.9 °F 30.40 in SSW 6.4 mph 10.4 mph 52 % 0.00 in 76.0 W/m2 BKN
16:33 48.6 °F 32.2 °F 30.40 in SSW 6.4 mph 12.0 mph 53 % 0.00 in 72.0 W/m2 BKN
16:38 48.5 °F 32.6 °F 30.40 in SW 3.3 mph 9.2 mph 54 % 0.00 in 62.0 W/m2 BKN
16:43 48.4 °F 33.0 °F 30.41 in SW 6.2 mph 11.5 mph 55 % 0.00 in 58.0 W/m2 BKN
16:48 48.1 °F 33.1 °F 30.41 in SW 3.6 mph 5.8 mph 56 % 0.00 in 51.0 W/m2 BKN
16:53 47.9 °F 32.9 °F 30.41 in WSW 4.6 mph 12.7 mph 56 % 0.00 in 49.0 W/m2 BKN
16:58 47.7 °F 33.2 °F 30.41 in WSW 3.1 mph 8.1 mph 57 % 0.00 in 35.0 W/m2 BKN
17:03 47.7 °F 33.6 °F 30.41 in WSW 7.6 mph 10.4 mph 58 % 0.00 in 25.0 W/m2 OVC
17:08 47.4 °F 33.8 °F 30.41 in WSW 3.1 mph 8.0 mph 59 % 0.00 in 21.0 W/m2 OVC
17:13 47.3 °F 34.1 °F 30.41 in WSW 3.1 mph 8.1 mph 60 % 0.00 in 16.0 W/m2 OVC
17:18 47.1 °F 34.3 °F 30.41 in WSW 4.9 mph 8.1 mph 61 % 0.00 in 12.0 W/m2 OVC
17:23 46.9 °F 34.6 °F 30.41 in SW 5.9 mph 5.9 mph 62 % 0.00 in 16.0 W/m2 BKN
17:28 46.7 °F 34.8 °F 30.41 in SSW 3.9 mph 5.8 mph 63 % 0.00 in 12.0 W/m2 BKN
17:34 46.5 °F 35.0 °F 30.41 in SSW 4.2 mph 4.2 mph 64 % 0.00 in 9.0 W/m2 BKN
17:39 46.3 °F 35.2 °F 30.41 in SSW 3.4 mph 4.6 mph 65 % 0.00 in 7.0 W/m2 BKN
17:44 46.1 °F 35.4 °F 30.41 in SSW 2.7 mph 3.5 mph 66 % 0.00 in 5.0 W/m2 SCT
17:49 46.0 °F 35.7 °F 30.41 in South 3.5 mph 4.6 mph 67 % 0.00 in 0.0 W/m2 FEW
17:54 45.8 °F 35.5 °F 30.41 in South 2.6 mph 3.5 mph 67 % 0.00 in 0.0 W/m2 FEW
17:59 45.7 °F 35.7 °F 30.41 in SSW 3.3 mph 4.6 mph 68 % 0.00 in 0.0 W/m2 FEW
18:04 45.6 °F 35.6 °F 30.41 in SSW 2.5 mph 4.0 mph 68 % 0.00 in 0.0 W/m2 FEW
18:09 45.6 °F 35.6 °F 30.41 in South 1.8 mph 3.5 mph 68 % 0.00 in 0.0 W/m2 FEW
18:14 45.5 °F 35.9 °F 30.41 in South 1.5 mph 3.5 mph 69 % 0.00 in 0.0 W/m2 FEW
18:19 45.3 °F 35.7 °F 30.41 in South 0.2 mph 2.3 mph 69 % 0.00 in 0.0 W/m2 FEW
18:24 45.3 °F 35.7 °F 30.41 in Calm   1.2 mph 69 % 0.00 in 0.0 W/m2 FEW
18:29 45.3 °F 35.7 °F 30.41 in Calm     69 % 0.00 in 0.0 W/m2 FEW
18:34 45.3 °F 36.1 °F 30.41 in Calm     70 % 0.00 in 0.0 W/m2 FEW
18:39 45.2 °F 36.0 °F 30.41 in Calm     70 % 0.00 in 0.0 W/m2 FEW
18:44 45.1 °F 35.9 °F 30.41 in Calm     70 % 0.00 in 0.0 W/m2 FEW
18:49 45.1 °F 35.9 °F 30.41 in Calm     70 % 0.00 in 0.0 W/m2 FEW
18:54 45.0 °F 35.8 °F 30.41 in Calm     70 % 0.00 in 0.0 W/m2 FEW
18:59 45.0 °F 35.8 °F 30.41 in Calm     70 % 0.00 in 0.0 W/m2 FEW
19:04 44.9 °F 35.7 °F 30.41 in Calm     70 % 0.00 in 0.0 W/m2 FEW
19:09 44.9 °F 35.7 °F 30.41 in Calm     70 % 0.00 in 0.0 W/m2 FEW
19:14 44.9 °F 35.7 °F 30.41 in Calm     70 % 0.00 in 0.0 W/m2 FEW
19:19 44.8 °F 35.6 °F 30.41 in Calm     70 % 0.00 in 0.0 W/m2 FEW
19:24 44.7 °F 35.9 °F 30.41 in Calm     71 % 0.00 in 0.0 W/m2 FEW
19:29 44.6 °F 35.8 °F 30.41 in Calm     71 % 0.00 in 0.0 W/m2 FEW
19:34 44.5 °F 35.7 °F 30.41 in Calm     71 % 0.00 in 0.0 W/m2 FEW
19:39 44.5 °F 35.7 °F 30.41 in Calm     71 % 0.00 in 0.0 W/m2 FEW
19:44 44.5 °F 35.7 °F 30.41 in Calm     71 % 0.00 in 0.0 W/m2 FEW
19:49 44.4 °F 35.6 °F 30.40 in Calm     71 % 0.00 in 0.0 W/m2 FEW
19:54 44.1 °F 35.3 °F 30.40 in Calm     71 % 0.00 in 0.0 W/m2 FEW
19:59 43.9 °F 35.5 °F 30.40 in Calm     72 % 0.00 in 0.0 W/m2 FEW
20:04 43.4 °F 35.0 °F 30.40 in Calm     72 % 0.00 in 0.0 W/m2 FEW
20:05 43.4 °F 35.0 °F 30.40 in Calm     72 % 0.00 in 0.0 W/m2 FEW
20:10 43.0 °F 34.9 °F 30.40 in Calm     73 % 0.00 in 0.0 W/m2 FEW
20:15 42.5 °F 34.5 °F 30.40 in Calm     73 % 0.00 in 0.0 W/m2 FEW
20:20 42.1 °F 34.4 °F 30.40 in Calm     74 % 0.00 in 0.0 W/m2 FEW
20:25 41.8 °F 34.5 °F 30.40 in Calm     75 % 0.00 in 0.0 W/m2 FEW
20:30 41.6 °F 34.6 °F 30.40 in Calm     76 % 0.00 in 0.0 W/m2 FEW
20:35 41.4 °F 34.4 °F 30.40 in Calm     76 % 0.00 in 0.0 W/m2 FEW
20:40 41.3 °F 34.6 °F 30.40 in Calm     77 % 0.00 in 0.0 W/m2 FEW
20:45 40.8 °F 34.1 °F 30.40 in Calm     77 % 0.00 in 0.0 W/m2 FEW
20:50 40.5 °F 34.2 °F 30.40 in Calm     78 % 0.00 in 0.0 W/m2 FEW
20:55 40.2 °F 34.2 °F 30.40 in Calm     79 % 0.00 in 0.0 W/m2 FEW
21:00 40.0 °F 34.0 °F 30.40 in Calm     79 % 0.00 in 0.0 W/m2 FEW
21:05 39.4 °F 33.4 °F 30.40 in Calm     79 % 0.00 in 0.0 W/m2 FEW
21:10 39.1 °F 33.5 °F 30.41 in Calm     80 % 0.00 in 0.0 W/m2 FEW
21:15 39.3 °F 34.0 °F 30.41 in Calm     81 % 0.00 in 0.0 W/m2 FEW
21:20 39.2 °F 33.9 °F 30.41 in Calm     81 % 0.00 in 0.0 W/m2 FEW
21:25 39.2 °F 34.2 °F 30.41 in Calm     82 % 0.00 in 0.0 W/m2 FEW
21:30 38.9 °F 33.9 °F 30.41 in Calm     82 % 0.00 in 0.0 W/m2 FEW
21:35 38.5 °F 33.5 °F 30.41 in Calm     82 % 0.00 in 0.0 W/m2 FEW
21:41 38.7 °F 33.7 °F 30.41 in Calm     82 % 0.00 in 0.0 W/m2 FEW
21:46 38.4 °F 33.4 °F 30.41 in Calm     82 % 0.00 in 0.0 W/m2 FEW
21:51 38.3 °F 33.6 °F 30.41 in Calm     83 % 0.00 in 0.0 W/m2 FEW
21:56 38.4 °F 33.7 °F 30.41 in Calm     83 % 0.00 in 0.0 W/m2 FEW
22:01 38.5 °F 33.8 °F 30.41 in Calm     83 % 0.00 in 0.0 W/m2 FEW
22:06 38.4 °F 33.7 °F 30.40 in Calm     83 % 0.00 in 0.0 W/m2 FEW
22:11 38.2 °F 33.5 °F 30.40 in Calm     83 % 0.00 in 0.0 W/m2 FEW
22:16 38.0 °F 33.3 °F 30.40 in Calm     83 % 0.00 in 0.0 W/m2 FEW
22:21 37.8 °F 33.4 °F 30.41 in Calm     84 % 0.00 in 0.0 W/m2 FEW
22:26 37.7 °F 33.3 °F 30.41 in Calm     84 % 0.00 in 0.0 W/m2 FEW
22:31 37.6 °F 33.2 °F 30.40 in Calm     84 % 0.00 in 0.0 W/m2 FEW
22:36 37.5 °F 33.1 °F 30.40 in Calm     84 % 0.00 in 0.0 W/m2 FEW
22:41 37.3 °F 32.9 °F 30.40 in Calm     84 % 0.00 in 0.0 W/m2 FEW
22:46 37.1 °F 32.7 °F 30.39 in Calm     84 % 0.00 in 0.0 W/m2 FEW
22:51 37.2 °F 33.1 °F 30.39 in Calm     85 % 0.00 in 0.0 W/m2 FEW
22:56 37.2 °F 33.1 °F 30.39 in South 0.3 mph 1.2 mph 85 % 0.00 in 0.0 W/m2 FEW
23:01 37.1 °F 33.0 °F 30.39 in Calm     85 % 0.00 in 0.0 W/m2 FEW
23:06 37.0 °F 32.9 °F 30.39 in Calm     85 % 0.00 in 0.0 W/m2 FEW
23:11 36.8 °F 32.7 °F 30.39 in Calm     85 % 0.00 in 0.0 W/m2 FEW
23:16 36.8 °F 32.7 °F 30.39 in Calm   1.0 mph 85 % 0.00 in 0.0 W/m2 FEW
23:21 36.8 °F 32.7 °F 30.39 in WSW 0.6 mph 2.3 mph 85 % 0.00 in 0.0 W/m2 FEW
23:26 36.7 °F 32.6 °F 30.39 in Calm     85 % 0.00 in 0.0 W/m2 FEW
23:31 36.7 °F 32.6 °F 30.39 in Calm     85 % 0.00 in 0.0 W/m2 FEW
23:36 36.8 °F 32.7 °F 30.39 in Calm     85 % 0.00 in 0.0 W/m2 FEW
23:41 37.0 °F 32.9 °F 30.39 in Calm     85 % 0.00 in 0.0 W/m2 FEW
23:46 36.9 °F 32.8 °F 30.39 in WSW 0.1 mph 1.2 mph 85 % 0.00 in 0.0 W/m2 FEW
23:51 37.2 °F 33.1 °F 30.39 in Calm     85 % 0.00 in 0.0 W/m2 FEW
23:56 37.2 °F 33.1 °F 30.39 in Calm     85 % 0.00 in 0.0 W/m2 FEW
Air Products Campus Weather
Compliments of Weather Underground - 3.5 mb